PWSweather.com
Personal Weather Stations
Station Observations
KILMORRI1
Goose Lake, Morris, IL 60450

Goose LakeMorris, IL 60450

Lat: 41.34, Lon: -88.3

Elevation: 523

Station Type:

Latest ConditionsUpdated 4:40:03 PM CST Sunday, Jan 19, 2020
Currently Today's Max Today's Min Today's Average
Temperature 13.6°F-10.2°C 14.8°F-9.6°C 1.7°F-16.8°C 6.0°F-14.4°C
Dew Point 8.5°F-13.1°C 8.9°F-12.8°C -4.0°F-20.0°C 0.5°F-17.5°C
Winds 8.1 mph WNW13.0 kmh WNW 17.3 mph -27.8 kmh - - 9.7 mph 15.6 kmh
Wind Gusts 10.4 mph16.7 kmh 25.3 mph40.7 kmh - -
Humidity 80% 80% 75% 78%
Pressure 30.49 in1032.5 mb 30.49 in1032.5 mb 30.16 in1021.3 mb -
Hour Temp Dew Point Humidity Winds Wind Gusts Pressure Precip Precip Rate Daily Precip Total
04:40 PM 13.6°F-10.2°C 8.5°F-13.1°C 80% 8.1 mph WNW13.0 kmh WNW 10.4 mph16.7 kmh 30.49 in1032.5 mb - 0.00 in0.0 mm 0.00 in0.0 mm
04:30 PM 13.9°F-10.1°C 8.6°F-13.0°C 79% 9.2 mph WNW14.8 kmh WNW 10.4 mph16.7 kmh 30.48 in1032.2 mb - 0.00 in0.0 mm 0.00 in0.0 mm
04:20 PM 14.0°F-10.0°C 8.7°F-12.9°C 79% 6.9 mph WNW11.1 kmh WNW 8.1 mph13.0 kmh 30.48 in1032.2 mb - 0.00 in0.0 mm 0.00 in0.0 mm
04:10 PM 14.1°F-9.9°C 8.8°F-12.9°C 79% 5.8 mph WNW9.3 kmh WNW 11.5 mph18.5 kmh 30.48 in1032.2 mb - 0.00 in0.0 mm 0.00 in0.0 mm
04:00 PM 13.7°F-10.2°C 8.4°F-13.1°C 79% 8.1 mph W13.0 kmh W 11.5 mph18.5 kmh 30.47 in1031.8 mb - 0.00 in0.0 mm 0.00 in0.0 mm
03:50 PM 14.0°F-10.0°C 8.7°F-12.9°C 79% 6.9 mph W11.1 kmh W 9.2 mph14.8 kmh 30.47 in1031.8 mb - 0.00 in0.0 mm 0.00 in0.0 mm
03:40 PM 14.3°F-9.8°C 8.7°F-12.9°C 78% 4.6 mph WNW7.4 kmh WNW 6.9 mph11.1 kmh 30.46 in1031.5 mb - 0.00 in0.0 mm 0.00 in0.0 mm
03:30 PM 14.3°F-9.8°C 8.7°F-12.9°C 78% 8.1 mph WNW13.0 kmh WNW 11.5 mph18.5 kmh 30.46 in1031.5 mb - 0.00 in0.0 mm 0.00 in0.0 mm
03:20 PM 14.8°F-9.6°C 8.9°F-12.8°C 77% 9.2 mph W14.8 kmh W 13.8 mph22.2 kmh 30.45 in1031.2 mb - 0.00 in0.0 mm 0.00 in0.0 mm
03:10 PM 14.5°F-9.7°C 8.6°F-13.0°C 77% 9.2 mph WNW14.8 kmh WNW 13.8 mph22.2 kmh 30.45 in1031.2 mb - 0.00 in0.0 mm 0.00 in0.0 mm
03:00 PM 14.4°F-9.8°C 8.8°F-12.9°C 78% 8.1 mph WNW13.0 kmh WNW 13.8 mph22.2 kmh 30.45 in1031.2 mb - 0.00 in0.0 mm 0.00 in0.0 mm
02:50 PM 14.4°F-9.8°C 8.8°F-12.9°C 78% 8.1 mph W13.0 kmh W 18.4 mph29.6 kmh 30.45 in1031.2 mb - 0.00 in0.0 mm 0.00 in0.0 mm
02:40 PM 13.4°F-10.3°C 7.5°F-13.6°C 77% 6.9 mph WNW11.1 kmh WNW 11.5 mph18.5 kmh 30.44 in1030.8 mb - 0.00 in0.0 mm 0.00 in0.0 mm
02:30 PM 13.8°F-10.1°C 8.5°F-13.1°C 79% 9.2 mph WNW14.8 kmh WNW 12.7 mph20.4 kmh 30.43 in1030.5 mb - 0.00 in0.0 mm 0.00 in0.0 mm
02:20 PM 13.4°F-10.3°C 7.5°F-13.6°C 77% 9.2 mph WNW14.8 kmh WNW 12.7 mph20.4 kmh 30.43 in1030.5 mb - 0.00 in0.0 mm 0.00 in0.0 mm
02:10 PM 13.1°F-10.5°C 7.5°F-13.6°C 78% 8.1 mph WNW13.0 kmh WNW 13.8 mph22.2 kmh 30.42 in1030.1 mb - 0.00 in0.0 mm 0.00 in0.0 mm
02:00 PM 12.4°F-10.9°C 6.8°F-14.0°C 78% 10.4 mph WNW16.7 kmh WNW 13.8 mph22.2 kmh 30.42 in1030.1 mb - 0.00 in0.0 mm 0.00 in0.0 mm
01:50 PM 12.5°F-10.8°C 6.9°F-13.9°C 78% 9.2 mph W14.8 kmh W 12.7 mph20.4 kmh 30.42 in1030.1 mb - 0.00 in0.0 mm 0.00 in0.0 mm
01:40 PM 11.7°F-11.3°C 6.7°F-14.1°C 80% 5.8 mph W9.3 kmh W 9.2 mph14.8 kmh 30.42 in1030.1 mb - 0.00 in0.0 mm 0.00 in0.0 mm
01:30 PM 11.2°F-11.6°C 5.9°F-14.5°C 79% 6.9 mph W11.1 kmh W 10.4 mph16.7 kmh 30.41 in1029.8 mb - 0.00 in0.0 mm 0.00 in0.0 mm
01:20 PM 11.2°F-11.6°C 5.7°F-14.6°C 78% 9.2 mph W14.8 kmh W 13.8 mph22.2 kmh 30.41 in1029.8 mb - 0.00 in0.0 mm 0.00 in0.0 mm
01:10 PM 10.9°F-11.7°C 5.9°F-14.5°C 80% 8.1 mph WSW13.0 kmh WSW 11.5 mph18.5 kmh 30.41 in1029.8 mb - 0.00 in0.0 mm 0.00 in0.0 mm
01:00 PM 10.3°F-12.1°C 5.1°F-14.9°C 79% 8.1 mph W13.0 kmh W 9.2 mph14.8 kmh 30.41 in1029.8 mb - 0.00 in0.0 mm 0.00 in0.0 mm
12:50 PM 9.8°F-12.3°C 4.9°F-15.1°C 80% 5.8 mph W9.3 kmh W 13.8 mph22.2 kmh 30.41 in1029.8 mb - 0.00 in0.0 mm 0.00 in0.0 mm
12:40 PM 10.0°F-12.2°C 4.8°F-15.1°C 79% 5.8 mph W9.3 kmh W 10.4 mph16.7 kmh 30.41 in1029.8 mb - 0.00 in0.0 mm 0.00 in0.0 mm
12:30 PM 9.3°F-12.6°C 4.1°F-15.5°C 79% 9.2 mph W14.8 kmh W 15.0 mph24.1 kmh 30.41 in1029.8 mb - 0.00 in0.0 mm 0.00 in0.0 mm
12:20 PM 9.2°F-12.7°C 4.0°F-15.6°C 79% 9.2 mph W14.8 kmh W 13.8 mph22.2 kmh 30.40 in1029.5 mb - 0.00 in0.0 mm 0.00 in0.0 mm
12:10 PM 9.5°F-12.5°C 3.7°F-15.7°C 77% 11.5 mph W18.5 kmh W 15.0 mph24.1 kmh 30.40 in1029.5 mb - 0.00 in0.0 mm 0.00 in0.0 mm
12:00 PM 9.8°F-12.3°C 4.0°F-15.6°C 77% 9.2 mph WNW14.8 kmh WNW 12.7 mph20.4 kmh 30.40 in1029.5 mb - 0.00 in0.0 mm 0.00 in0.0 mm
11:50 AM 9.4°F-12.6°C 3.6°F-15.8°C 77% 11.5 mph WSW18.5 kmh WSW 18.4 mph29.6 kmh 30.40 in1029.5 mb - 0.00 in0.0 mm 0.00 in0.0 mm
11:40 AM 9.5°F-12.5°C 4.1°F-15.5°C 78% 9.2 mph W14.8 kmh W 12.7 mph20.4 kmh 30.40 in1029.5 mb - 0.00 in0.0 mm 0.00 in0.0 mm
11:30 AM 9.1°F-12.7°C 3.4°F-15.9°C 77% 10.4 mph WNW16.7 kmh WNW 16.1 mph25.9 kmh 30.40 in1029.5 mb - 0.00 in0.0 mm 0.00 in0.0 mm
11:20 AM 8.9°F-12.8°C 3.5°F-15.8°C 78% 6.9 mph NW11.1 kmh NW 11.5 mph18.5 kmh 30.39 in1029.1 mb - 0.00 in0.0 mm 0.00 in0.0 mm
11:10 AM 7.7°F-13.5°C 2.0°F-16.7°C 77% 9.2 mph W14.8 kmh W 15.0 mph24.1 kmh 30.39 in1029.1 mb - 0.00 in0.0 mm 0.00 in0.0 mm
11:00 AM 7.5°F-13.6°C 2.1°F-16.6°C 78% 8.1 mph WNW13.0 kmh WNW 16.1 mph25.9 kmh 30.39 in1029.1 mb - 0.00 in0.0 mm 0.00 in0.0 mm
10:50 AM 7.2°F-13.8°C 1.5°F-16.9°C 77% 9.2 mph WNW14.8 kmh WNW 12.7 mph20.4 kmh 30.39 in1029.1 mb - 0.00 in0.0 mm 0.00 in0.0 mm
10:40 AM 6.9°F-13.9°C 1.5°F-16.9°C 78% 8.1 mph WNW13.0 kmh WNW 13.8 mph22.2 kmh 30.39 in1029.1 mb - 0.00 in0.0 mm 0.00 in0.0 mm
10:30 AM 6.5°F-14.2°C 0.8°F-17.3°C 77% 9.2 mph WNW14.8 kmh WNW 12.7 mph20.4 kmh 30.39 in1029.1 mb - 0.00 in0.0 mm 0.00 in0.0 mm
10:20 AM 6.0°F-14.4°C 0.3°F-17.6°C 77% 9.2 mph WSW14.8 kmh WSW 12.7 mph20.4 kmh 30.39 in1029.1 mb - 0.00 in0.0 mm 0.00 in0.0 mm
10:10 AM 6.0°F-14.4°C 0.6°F-17.4°C 78% 11.5 mph W18.5 kmh W 17.3 mph27.8 kmh 30.39 in1029.1 mb - 0.00 in0.0 mm 0.00 in0.0 mm
10:00 AM 5.6°F-14.7°C -0.1°F-17.8°C 77% 8.1 mph WNW13.0 kmh WNW 13.8 mph22.2 kmh 30.38 in1028.8 mb - 0.00 in0.0 mm 0.00 in0.0 mm
09:50 AM 5.2°F-14.9°C -0.5°F-18.1°C 77% 10.4 mph W16.7 kmh W 16.1 mph25.9 kmh 30.38 in1028.8 mb - 0.00 in0.0 mm 0.00 in0.0 mm
09:40 AM 4.9°F-15.1°C -0.5°F-18.1°C 78% 9.2 mph W14.8 kmh W 10.4 mph16.7 kmh 30.38 in1028.8 mb - 0.00 in0.0 mm 0.00 in0.0 mm
09:30 AM 4.5°F-15.3°C -0.8°F-18.2°C 78% 10.4 mph W16.7 kmh W 11.5 mph18.5 kmh 30.38 in1028.8 mb - 0.00 in0.0 mm 0.00 in0.0 mm
09:20 AM 4.2°F-15.4°C -0.9°F-18.3°C 79% 9.2 mph W14.8 kmh W 18.4 mph29.6 kmh 30.37 in1028.4 mb - 0.00 in0.0 mm 0.00 in0.0 mm
09:10 AM 4.1°F-15.5°C -1.3°F-18.5°C 78% 10.4 mph W16.7 kmh W 12.7 mph20.4 kmh 30.37 in1028.4 mb - 0.00 in0.0 mm 0.00 in0.0 mm
09:00 AM 3.9°F-15.6°C -0.9°F-18.3°C 80% 8.1 mph W13.0 kmh W 11.5 mph18.5 kmh 30.36 in1028.1 mb - 0.00 in0.0 mm 0.00 in0.0 mm
08:50 AM 3.5°F-15.8°C -1.6°F-18.7°C 79% 10.4 mph W16.7 kmh W 16.1 mph25.9 kmh 30.36 in1028.1 mb - 0.00 in0.0 mm 0.00 in0.0 mm
08:40 AM 3.2°F-16.0°C -1.9°F-18.8°C 79% 6.9 mph W11.1 kmh W 11.5 mph18.5 kmh 30.35 in1027.8 mb - 0.00 in0.0 mm 0.00 in0.0 mm
08:30 AM 2.9°F-16.2°C -2.4°F-19.1°C 78% 10.4 mph W16.7 kmh W 12.7 mph20.4 kmh 30.35 in1027.8 mb - 0.00 in0.0 mm 0.00 in0.0 mm
08:20 AM 2.8°F-16.2°C -2.5°F-19.2°C 78% 10.4 mph W16.7 kmh W 18.4 mph29.6 kmh 30.34 in1027.4 mb - 0.00 in0.0 mm 0.00 in0.0 mm
08:10 AM 2.7°F-16.3°C -2.3°F-19.1°C 79% 9.2 mph W14.8 kmh W 10.4 mph16.7 kmh 30.34 in1027.4 mb - 0.00 in0.0 mm 0.00 in0.0 mm
08:00 AM 2.7°F-16.3°C -2.4°F-19.1°C 79% 11.5 mph W18.5 kmh W 19.6 mph31.5 kmh 30.34 in1027.4 mb - 0.00 in0.0 mm 0.00 in0.0 mm
07:50 AM 2.5°F-16.4°C -2.5°F-19.2°C 79% 9.2 mph W14.8 kmh W 15.0 mph24.1 kmh 30.33 in1027.1 mb - 0.00 in0.0 mm 0.00 in0.0 mm
07:40 AM 2.4°F-16.4°C -2.9°F-19.4°C 78% 10.4 mph W16.7 kmh W 13.8 mph22.2 kmh 30.33 in1027.1 mb - 0.00 in0.0 mm 0.00 in0.0 mm
07:30 AM 2.3°F-16.5°C -3.3°F-19.6°C 77% 10.4 mph W16.7 kmh W 12.7 mph20.4 kmh 30.33 in1027.1 mb - 0.00 in0.0 mm 0.00 in0.0 mm
07:20 AM 2.2°F-16.6°C -3.1°F-19.5°C 78% 6.9 mph W11.1 kmh W 9.2 mph14.8 kmh 30.33 in1027.1 mb - 0.00 in0.0 mm 0.00 in0.0 mm
07:10 AM 2.2°F-16.6°C -3.1°F-19.5°C 78% 9.2 mph W14.8 kmh W 13.8 mph22.2 kmh 30.32 in1026.8 mb - 0.00 in0.0 mm 0.00 in0.0 mm
07:00 AM 2.0°F-16.7°C -3.3°F-19.6°C 78% 11.5 mph W18.5 kmh W 17.3 mph27.8 kmh 30.31 in1026.4 mb - 0.00 in0.0 mm 0.00 in0.0 mm
06:50 AM 1.9°F-16.7°C -3.4°F-19.7°C 78% 8.1 mph W13.0 kmh W 10.4 mph16.7 kmh 30.31 in1026.4 mb - 0.00 in0.0 mm 0.00 in0.0 mm
06:40 AM 1.7°F-16.8°C -3.8°F-19.9°C 77% 9.2 mph W14.8 kmh W 11.5 mph18.5 kmh 30.30 in1026.1 mb - 0.00 in0.0 mm 0.00 in0.0 mm
06:30 AM 1.8°F-16.8°C -3.5°F-19.7°C 78% 8.1 mph WSW13.0 kmh WSW 11.5 mph18.5 kmh 30.30 in1026.1 mb - 0.00 in0.0 mm 0.00 in0.0 mm
06:20 AM 1.7°F-16.8°C -3.6°F-19.8°C 78% 10.4 mph W16.7 kmh W 17.3 mph27.8 kmh 30.29 in1025.7 mb - 0.00 in0.0 mm 0.00 in0.0 mm
06:10 AM 1.7°F-16.8°C -3.5°F-19.7°C 78% 4.6 mph WSW7.4 kmh WSW 6.9 mph11.1 kmh 30.28 in1025.4 mb - 0.00 in0.0 mm 0.00 in0.0 mm
06:00 AM 1.8°F-16.8°C -3.7°F-19.8°C 77% 8.1 mph WSW13.0 kmh WSW 16.1 mph25.9 kmh 30.27 in1025.1 mb - 0.00 in0.0 mm 0.00 in0.0 mm
05:50 AM 1.8°F-16.8°C -3.5°F-19.7°C 78% 8.1 mph WNW13.0 kmh WNW 15.0 mph24.1 kmh 30.27 in1025.1 mb - 0.00 in0.0 mm 0.00 in0.0 mm
05:40 AM 1.9°F-16.7°C -3.4°F-19.7°C 78% 12.7 mph W20.4 kmh W 18.4 mph29.6 kmh 30.26 in1024.7 mb - 0.00 in0.0 mm 0.00 in0.0 mm
05:30 AM 1.9°F-16.7°C -3.7°F-19.8°C 77% 10.4 mph W16.7 kmh W 12.7 mph20.4 kmh 30.27 in1025.1 mb - 0.00 in0.0 mm 0.00 in0.0 mm
05:20 AM 1.8°F-16.8°C -3.5°F-19.7°C 78% 9.2 mph W14.8 kmh W 15.0 mph24.1 kmh 30.27 in1025.1 mb - 0.00 in0.0 mm 0.00 in0.0 mm
05:10 AM 1.8°F-16.8°C -3.7°F-19.8°C 77% 10.4 mph W16.7 kmh W 17.3 mph27.8 kmh 30.26 in1024.7 mb - 0.00 in0.0 mm 0.00 in0.0 mm
05:00 AM 1.8°F-16.8°C -3.7°F-19.8°C 77% 10.4 mph W16.7 kmh W 17.3 mph27.8 kmh 30.25 in1024.4 mb - 0.00 in0.0 mm 0.00 in0.0 mm
04:50 AM 1.8°F-16.8°C -3.7°F-19.8°C 77% 10.4 mph WSW16.7 kmh WSW 13.8 mph22.2 kmh 30.25 in1024.4 mb - 0.00 in0.0 mm 0.00 in0.0 mm
04:40 AM 1.8°F-16.8°C -3.7°F-19.8°C 77% 11.5 mph W18.5 kmh W 12.7 mph20.4 kmh 30.25 in1024.4 mb - 0.00 in0.0 mm 0.00 in0.0 mm
04:30 AM 1.8°F-16.8°C -3.7°F-19.8°C 77% 6.9 mph W11.1 kmh W 9.2 mph14.8 kmh 30.25 in1024.4 mb - 0.00 in0.0 mm 0.00 in0.0 mm
04:20 AM 1.9°F-16.7°C -3.7°F-19.8°C 77% 10.4 mph W16.7 kmh W 16.1 mph25.9 kmh 30.24 in1024.0 mb - 0.00 in0.0 mm 0.00 in0.0 mm
04:10 AM 1.8°F-16.8°C -3.7°F-19.8°C 77% 8.1 mph W13.0 kmh W 9.2 mph14.8 kmh 30.23 in1023.7 mb - 0.00 in0.0 mm 0.00 in0.0 mm
04:00 AM 1.8°F-16.8°C -4.0°F-20.0°C 76% 11.5 mph W18.5 kmh W 16.1 mph25.9 kmh 30.23 in1023.7 mb - 0.00 in0.0 mm 0.00 in0.0 mm
03:50 AM 1.9°F-16.7°C -3.6°F-19.8°C 77% 12.7 mph WNW20.4 kmh WNW 19.6 mph31.5 kmh 30.22 in1023.4 mb - 0.00 in0.0 mm 0.00 in0.0 mm
03:40 AM 2.0°F-16.7°C -3.8°F-19.9°C 76% 12.7 mph W20.4 kmh W 18.4 mph29.6 kmh 30.22 in1023.4 mb - 0.00 in0.0 mm 0.00 in0.0 mm
03:30 AM 2.0°F-16.7°C -3.8°F-19.9°C 76% 11.5 mph W18.5 kmh W 18.4 mph29.6 kmh 30.22 in1023.4 mb - 0.00 in0.0 mm 0.00 in0.0 mm
03:20 AM 2.1°F-16.6°C -3.7°F-19.8°C 76% 11.5 mph W18.5 kmh W 18.4 mph29.6 kmh 30.22 in1023.4 mb - 0.00 in0.0 mm 0.00 in0.0 mm
03:10 AM 2.2°F-16.6°C -3.6°F-19.8°C 76% 15.0 mph WSW24.1 kmh WSW 25.3 mph40.7 kmh 30.21 in1023.0 mb - 0.00 in0.0 mm 0.00 in0.0 mm
03:00 AM 2.2°F-16.6°C -3.6°F-19.8°C 76% 13.8 mph W22.2 kmh W 24.2 mph38.9 kmh 30.21 in1023.0 mb - 0.00 in0.0 mm 0.00 in0.0 mm
02:50 AM 2.3°F-16.5°C -3.5°F-19.7°C 76% 12.7 mph W20.4 kmh W 21.9 mph35.2 kmh 30.21 in1023.0 mb - 0.00 in0.0 mm 0.00 in0.0 mm
02:40 AM 2.4°F-16.4°C -3.2°F-19.6°C 77% 11.5 mph W18.5 kmh W 15.0 mph24.1 kmh 30.21 in1023.0 mb - 0.00 in0.0 mm 0.00 in0.0 mm
02:30 AM 2.4°F-16.4°C -3.4°F-19.7°C 76% 12.7 mph W20.4 kmh W 20.7 mph33.3 kmh 30.21 in1023.0 mb - 0.00 in0.0 mm 0.00 in0.0 mm
02:20 AM 2.5°F-16.4°C -3.3°F-19.6°C 76% 10.4 mph W16.7 kmh W 13.8 mph22.2 kmh 30.21 in1023.0 mb - 0.00 in0.0 mm 0.00 in0.0 mm
02:10 AM 2.6°F-16.3°C -3.5°F-19.7°C 75% 13.8 mph W22.2 kmh W 18.4 mph29.6 kmh 30.20 in1022.7 mb - 0.00 in0.0 mm 0.00 in0.0 mm
02:00 AM 2.7°F-16.3°C -3.2°F-19.6°C 76% 11.5 mph WSW18.5 kmh WSW 15.0 mph24.1 kmh 30.20 in1022.7 mb - 0.00 in0.0 mm 0.00 in0.0 mm
01:50 AM 2.7°F-16.3°C -3.1°F-19.5°C 76% 10.4 mph W16.7 kmh W 13.8 mph22.2 kmh 30.20 in1022.7 mb - 0.00 in0.0 mm 0.00 in0.0 mm
01:40 AM 2.8°F-16.2°C -3.1°F-19.5°C 76% 6.9 mph W11.1 kmh W 15.0 mph24.1 kmh 30.20 in1022.7 mb - 0.00 in0.0 mm 0.00 in0.0 mm
01:30 AM 2.9°F-16.2°C -3.0°F-19.4°C 76% 10.4 mph W16.7 kmh W 15.0 mph24.1 kmh 30.19 in1022.4 mb - 0.00 in0.0 mm 0.00 in0.0 mm
01:20 AM 2.9°F-16.2°C -3.2°F-19.6°C 75% 15.0 mph W24.1 kmh W 20.7 mph33.3 kmh 30.18 in1022.0 mb - 0.00 in0.0 mm 0.00 in0.0 mm
01:10 AM 3.1°F-16.1°C -2.5°F-19.2°C 77% 10.4 mph W16.7 kmh W 13.8 mph22.2 kmh 30.18 in1022.0 mb - 0.00 in0.0 mm 0.00 in0.0 mm
01:00 AM 3.1°F-16.1°C -3.0°F-19.4°C 75% 15.0 mph W24.1 kmh W 19.6 mph31.5 kmh 30.18 in1022.0 mb - 0.00 in0.0 mm 0.00 in0.0 mm
12:50 AM 3.3°F-15.9°C -2.6°F-19.2°C 76% 10.4 mph W16.7 kmh W 18.4 mph29.6 kmh 30.17 in1021.7 mb - 0.00 in0.0 mm 0.00 in0.0 mm
12:40 AM 3.3°F-15.9°C -2.6°F-19.2°C 76% 11.5 mph W18.5 kmh W 20.7 mph33.3 kmh 30.17 in1021.7 mb - 0.00 in0.0 mm 0.00 in0.0 mm
12:30 AM 3.5°F-15.8°C -2.7°F-19.3°C 75% 17.3 mph W27.8 kmh W 20.7 mph33.3 kmh 30.16 in1021.3 mb - 0.00 in0.0 mm 0.00 in0.0 mm
12:20 AM 3.6°F-15.8°C -2.6°F-19.2°C 75% 12.7 mph W20.4 kmh W 15.0 mph24.1 kmh 30.17 in1021.7 mb - 0.00 in0.0 mm 0.00 in0.0 mm
12:10 AM 3.7°F-15.7°C -2.2°F-19.0°C 76% 12.7 mph W20.4 kmh W 24.2 mph38.9 kmh 30.16 in1021.3 mb - 0.00 in0.0 mm 0.00 in0.0 mm
12:00 AM 3.8°F-15.7°C -2.1°F-18.9°C 76% 11.5 mph W18.5 kmh W 13.8 mph22.2 kmh 30.16 in1021.3 mb - 0.00 in0.0 mm 0.00 in0.0 mm